Lahaina, HI

12:02 PM HST on September 23, 2014 (GMT -1000)
Kahului | Change Station
CLOSE
Current Station
Airport
Location: Kahului,
Elevation: 49 ft
Nearby Weather Stations

Elev 49 ft 20.90 °N, 156.43 °W | Updated 8 minutes ago

Partly Cloudy
Partly Cloudy
88 °F
Feels Like 91 °F
N
22
Wind Variable Wind from NE
Gusts 33 mph

Today
High -- | Low -- °F
--% Chance of Precip.
Yesterday
High -- | Low -- °F
Precip. -- in
6:15 AM 6:21 PM
Waning Crescent, 0% visible
Pressure 30.04 in
Visibility 10.0 miles
Clouds Few 4000 ft
Heat Index 91 °F
Dew Point 68 °F
Humidity 51%
Rainfall 0.00 in
Snow Depth Not available.
UV 10 out of 12
Pollen Not available.
Air Quality Not available.
Flu Activity Not available.
METAR PHOG 232154Z 05019G29KT 10SM FEW040 31/20 A3002 RMK AO2 PK WND 04033/2115 SLP170 T03110200

More Conditions Fewer Conditions

Pressure 30.04 in
Visibility 10.0 miles
Clouds Few 4000 ft
Heat Index 91 °F
Dew Point 68 °F
Humidity 51%
Rainfall 0.00 in
Snow Depth Not available.
UV 10 out of 12
Pollen Not available.
Air Quality Not available.
Flu Activity Not available.
METAR PHOG 232154Z 05019G29KT 10SM FEW040 31/20 A3002 RMK AO2 PK WND 04033/2115 SLP170 T03110200

More Conditions Fewer Conditions

10-Day Weather Forecast

Almanac

Astronomy

Sep. 23, 2014 Rise Set
Actual Time 6:15 AM HST 6:21 PM HST
Civil Twilight 5:53 AM HST 6:43 PM HST
Nautical Twilight 5:27 AM HST 7:09 PM HST
Astronomical Twilight 5:02 AM HST 7:35 PM HST
Moon 5:50 AM HST 6:09 PM HST
Length of Visible Light 12h 50m
Length of Day
12h 05m
Tomorrow will be 1m 10s shorter.
Waning Crescent, 0% of the Moon is Illuminated
Today
Waning Crescent
Sep 24
New
Oct 1
First Quarter
Oct 8
Full
Oct 15
Last Quarter

Today's Extremes

State Highs State Lows

Community

WunderPhotos

Upload Photos

1,755,800 photos uploaded!

WunderBlogs® & News

Nearby

Snow Depth

Station Depth Elevation
No new snow has been reported.

Earthquake Activity

City Distance Mag. Time & Date
No recent earthquake activity has been reported nearby.
Minimum magnitude displayed is 2.5.

Coastal Water Temperatures

Place Temperature
No Stations Reporting

Nearby Weather Stations